< < Back
Terminal Aerodrome Forecast


Current Version              Previous Versions:   1  2  3  4  5  6  7  8  9  

Terminal Aerodrome Forecast

864
FTUS42 KMLB 100309 AAA
TAFMCO
TAF AMD
KMCO 100309Z 1003/1024 28011G18KT P6SM FEW040 BKN250
     FM101400 30014G22KT P6SM SKC=

Latest METAR

622
SAUS70 KWBC 100758
MTRMCO
METAR KMCO 100753Z 31007KT 10SM FEW050 BKN250 08/M03 A3012 RMK AO2
SLP200 T00781028


USA.gov is the U.S. government's official web portal to all federal, state and local government web resources and services.